Time;durP1;ratioP1;P1;durP2;ratioP2;P2;SDS_P1;SDS_P2;PMS_P1;PMS_P2;Temp;Humidity;BMP_temperature;BMP_pressure;BME280_temperature;BME280_humidity;BME280_pressure;Samples;Min_cycle;Max_cycle;Signal;HPM_P1;HPM_P2
2023/08/03 00:01:04;;;;;;;2.17;0.85;;;;;;;;;;5084261;28;20040;-68
2023/08/03 00:03:31;;;;;;;7.70;1.15;;;;;;;;;;5086073;28;20044;-68
2023/08/03 00:06:00;;;;;;;5.97;1.25;;;;;;;;;;5078664;28;20047;-69
2023/08/03 00:08:27;;;;;;;2.85;1.20;;;;;;;;;;5087620;28;20044;-69
2023/08/03 00:10:54;;;;;;;4.82;1.15;;;;;;;;;;5086009;28;20048;-69
2023/08/03 00:13:21;;;;;;;3.38;1.20;;;;;;;;;;5086009;28;20067;-69
2023/08/03 00:15:49;;;;;;;5.40;1.10;;;;;;;;;;5086444;28;20040;-69
2023/08/03 00:18:16;;;;;;;5.72;1.08;;;;;;;;;;5086768;28;20543;-69
2023/08/03 00:20:45;;;;;;;8.13;1.23;;;;;;;;;;5083129;28;20048;-69
2023/08/03 00:23:14;;;;;;;2.05;1.35;;;;;;;;;;5087086;28;20059;-69
2023/08/03 00:25:41;;;;;;;3.20;1.42;;;;;;;;;;5081551;28;20051;-69
2023/08/03 00:28:08;;;;;;;7.75;1.45;;;;;;;;;;5084653;28;20049;-69
2023/08/03 00:30:36;;;;;;;4.60;1.40;;;;;;;;;;5082996;28;20052;-69
2023/08/03 00:33:03;;;;;;;3.10;1.50;;;;;;;;;;5069659;28;20095;-69
2023/08/03 00:35:30;;;;;;;3.50;1.50;;;;;;;;;;5084154;28;20067;-69
2023/08/03 00:37:57;;;;;;;4.00;1.45;;;;;;;;;;5059339;28;20059;-69
2023/08/03 00:40:26;;;;;;;4.95;1.30;;;;;;;;;;5080725;28;20083;-69
2023/08/03 00:42:53;;;;;;;6.85;1.20;;;;;;;;;;5085865;28;20052;-69
2023/08/03 00:45:20;;;;;;;5.07;1.48;;;;;;;;;;5086337;28;20050;-69
2023/08/03 00:47:48;;;;;;;4.57;1.42;;;;;;;;;;5088502;28;20044;-69
2023/08/03 00:50:15;;;;;;;11.73;1.35;;;;;;;;;;5084703;28;20491;-69
2023/08/03 00:52:42;;;;;;;3.35;1.02;;;;;;;;;;5087807;28;20049;-69
2023/08/03 00:55:10;;;;;;;9.20;1.30;;;;;;;;;;5084989;28;20044;-70
2023/08/03 00:57:38;;;;;;;7.55;1.42;;;;;;;;;;5087197;28;20371;-69
2023/08/03 01:00:06;;;;;;;7.43;1.33;;;;;;;;;;5085575;28;20391;-69
2023/08/03 01:02:35;;;;;;;6.78;1.50;;;;;;;;;;5084823;28;20419;-70
2023/08/03 01:05:02;;;;;;;7.20;1.30;;;;;;;;;;5085795;28;20040;-71
2023/08/03 01:07:29;;;;;;;4.57;1.58;;;;;;;;;;5084478;28;20147;-71
2023/08/03 01:09:56;;;;;;;10.48;1.45;;;;;;;;;;5081096;28;20517;-71
2023/08/03 01:12:24;;;;;;;5.45;1.40;;;;;;;;;;5069213;28;20173;-72
2023/08/03 01:14:52;;;;;;;4.90;1.60;;;;;;;;;;5087310;28;20503;-72
2023/08/03 01:17:20;;;;;;;3.88;1.60;;;;;;;;;;5087450;28;20727;-71
2023/08/03 01:19:47;;;;;;;3.15;1.52;;;;;;;;;;5087217;28;20044;-72
2023/08/03 01:22:15;;;;;;;4.57;1.50;;;;;;;;;;5064402;28;20063;-71
2023/08/03 01:24:43;;;;;;;4.45;1.70;;;;;;;;;;5085949;28;20518;-71
2023/08/03 01:27:11;;;;;;;4.95;1.50;;;;;;;;;;5081255;28;20041;-71
2023/08/03 01:29:38;;;;;;;6.82;1.85;;;;;;;;;;5082761;28;20054;-71
2023/08/03 01:32:05;;;;;;;5.05;1.50;;;;;;;;;;5079480;28;20517;-71
2023/08/03 01:34:33;;;;;;;6.13;1.30;;;;;;;;;;5088650;28;20066;-71
2023/08/03 01:37:00;;;;;;;5.57;1.45;;;;;;;;;;5085999;28;20047;-71
2023/08/03 01:39:27;;;;;;;2.05;1.13;;;;;;;;;;5079701;28;20443;-71
2023/08/03 01:41:56;;;;;;;5.60;1.55;;;;;;;;;;5082351;28;20060;-72
2023/08/03 01:44:26;;;;;;;4.63;1.30;;;;;;;;;;5085742;28;20048;-71
2023/08/03 01:46:54;;;;;;;5.80;1.25;;;;;;;;;;5078211;28;20063;-71
2023/08/03 01:49:22;;;;;;;7.43;1.20;;;;;;;;;;5074175;28;20068;-71
2023/08/03 01:51:49;;;;;;;8.95;1.45;;;;;;;;;;5081300;28;20060;-72
2023/08/03 01:54:16;;;;;;;3.42;1.27;;;;;;;;;;5059573;28;20053;-71
2023/08/03 01:56:44;;;;;;;3.97;1.45;;;;;;;;;;5087217;28;20048;-71
2023/08/03 01:59:12;;;;;;;5.10;1.50;;;;;;;;;;5082125;28;21053;-71
2023/08/03 02:01:40;;;;;;;11.55;1.30;;;;;;;;;;5087381;28;20059;-72
2023/08/03 02:04:07;;;;;;;7.57;1.50;;;;;;;;;;5080366;28;20059;-72
2023/08/03 02:06:35;;;;;;;3.20;1.30;;;;;;;;;;5087074;28;20054;-72
2023/08/03 02:09:04;;;;;;;4.85;0.90;;;;;;;;;;5082668;28;20058;-72
2023/08/03 02:11:31;;;;;;;6.22;1.10;;;;;;;;;;5069704;28;20451;-73
2023/08/03 02:13:58;;;;;;;1.55;0.77;;;;;;;;;;5085373;28;20060;-72
2023/08/03 02:16:27;;;;;;;7.25;1.15;;;;;;;;;;5090928;28;20075;-72
2023/08/03 02:18:54;;;;;;;2.53;1.08;;;;;;;;;;5089043;28;20058;-72
2023/08/03 02:21:21;;;;;;;1.38;0.98;;;;;;;;;;5091804;28;20048;-72
2023/08/03 02:23:48;;;;;;;1.52;1.00;;;;;;;;;;5088730;28;20052;-72
2023/08/03 02:26:16;;;;;;;2.25;0.98;;;;;;;;;;5090517;28;20716;-72
2023/08/03 02:28:43;;;;;;;2.72;0.80;;;;;;;;;;5089048;28;20051;-72
2023/08/03 02:31:10;;;;;;;3.83;0.98;;;;;;;;;;5091841;28;20051;-72
2023/08/03 02:33:39;;;;;;;1.90;0.80;;;;;;;;;;5086790;28;20058;-72
2023/08/03 02:36:06;;;;;;;4.78;0.90;;;;;;;;;;5091249;28;20059;-72
2023/08/03 02:38:33;;;;;;;2.90;0.93;;;;;;;;;;5089757;28;20044;-73
2023/08/03 02:41:01;;;;;;;2.40;0.90;;;;;;;;;;5087842;28;20074;-72
2023/08/03 02:43:28;;;;;;;3.95;1.00;;;;;;;;;;5086999;28;20044;-73
2023/08/03 02:45:55;;;;;;;1.80;0.90;;;;;;;;;;5067999;28;20055;-71
2023/08/03 02:48:22;;;;;;;5.53;0.82;;;;;;;;;;5084886;28;20048;-72
2023/08/03 02:50:51;;;;;;;2.28;1.00;;;;;;;;;;5090469;28;20052;-72
2023/08/03 02:53:18;;;;;;;1.50;1.00;;;;;;;;;;5084149;28;20418;-73
2023/08/03 02:55:46;;;;;;;3.08;0.90;;;;;;;;;;5089062;28;20044;-71
2023/08/03 02:58:13;;;;;;;3.28;1.30;;;;;;;;;;5087030;28;20539;-72
2023/08/03 03:00:40;;;;;;;4.70;1.17;;;;;;;;;;5089333;28;20135;-71
2023/08/03 03:03:08;;;;;;;3.78;1.50;;;;;;;;;;5088411;28;20486;-72
2023/08/03 03:05:35;;;;;;;2.90;1.55;;;;;;;;;;5089933;28;20048;-71
2023/08/03 03:08:04;;;;;;;2.28;1.33;;;;;;;;;;5086941;28;20162;-73
2023/08/03 03:10:31;;;;;;;3.45;1.50;;;;;;;;;;5086682;28;20051;-72
2023/08/03 03:12:58;;;;;;;6.00;1.60;;;;;;;;;;5089600;28;20062;-71
2023/08/03 03:15:25;;;;;;;6.57;1.30;;;;;;;;;;5069228;28;20056;-72
2023/08/03 03:17:53;;;;;;;2.28;1.40;;;;;;;;;;5079926;28;20032;-72
2023/08/03 03:20:20;;;;;;;3.45;1.55;;;;;;;;;;5083702;28;20509;-73
2023/08/03 03:22:47;;;;;;;2.67;1.55;;;;;;;;;;5065669;28;20048;-71
2023/08/03 03:25:16;;;;;;;3.05;1.75;;;;;;;;;;5089971;28;20059;-71
2023/08/03 03:27:43;;;;;;;1.98;1.77;;;;;;;;;;5068801;28;20055;-72
2023/08/03 03:30:10;;;;;;;6.35;2.00;;;;;;;;;;5087911;28;20491;-71
2023/08/03 03:32:38;;;;;;;2.83;1.73;;;;;;;;;;5083488;28;20053;-71
2023/08/03 03:35:05;;;;;;;3.83;1.80;;;;;;;;;;5079467;28;20117;-72
2023/08/03 03:37:32;;;;;;;4.30;1.83;;;;;;;;;;5081254;28;20095;-71
2023/08/03 03:40:00;;;;;;;5.30;1.67;;;;;;;;;;5073871;28;20098;-71
2023/08/03 03:42:28;;;;;;;3.65;2.17;;;;;;;;;;5083960;28;20053;-72
2023/08/03 03:44:55;;;;;;;5.60;2.00;;;;;;;;;;5078194;28;20097;-71
2023/08/03 03:47:23;;;;;;;3.53;2.00;;;;;;;;;;5064814;28;20052;-71
2023/08/03 03:49:50;;;;;;;6.40;2.45;;;;;;;;;;5082301;28;20040;-72
2023/08/03 03:52:17;;;;;;;3.28;2.30;;;;;;;;;;5085492;28;20067;-71
2023/08/03 03:54:44;;;;;;;3.83;2.20;;;;;;;;;;5083873;28;20052;-71
2023/08/03 03:57:11;;;;;;;3.78;2.17;;;;;;;;;;5067919;28;20048;-71
2023/08/03 03:59:40;;;;;;;3.28;2.35;;;;;;;;;;5082655;28;20048;-71
2023/08/03 04:02:07;;;;;;;2.58;2.00;;;;;;;;;;5083085;28;20434;-71
2023/08/03 04:04:35;;;;;;;5.65;2.22;;;;;;;;;;5085650;28;20059;-72
2023/08/03 04:07:02;;;;;;;7.28;2.47;;;;;;;;;;5089329;28;20036;-72
2023/08/03 04:09:29;;;;;;;6.35;2.63;;;;;;;;;;5084932;28;20048;-72
2023/08/03 04:11:56;;;;;;;5.30;2.38;;;;;;;;;;5085088;28;20055;-71
2023/08/03 04:14:24;;;;;;;5.28;2.63;;;;;;;;;;5082315;28;20056;-72
2023/08/03 04:16:52;;;;;;;4.88;2.28;;;;;;;;;;5084119;28;20139;-72
2023/08/03 04:19:20;;;;;;;4.47;2.40;;;;;;;;;;5087489;28;20047;-72
2023/08/03 04:21:47;;;;;;;5.60;2.50;;;;;;;;;;5081940;28;20063;-71
2023/08/03 04:24:14;;;;;;;3.53;2.42;;;;;;;;;;5086898;28;20516;-72
2023/08/03 04:26:41;;;;;;;3.90;2.40;;;;;;;;;;5084983;28;20060;-72
2023/08/03 04:29:08;;;;;;;6.38;2.88;;;;;;;;;;5087021;28;20047;-72
2023/08/03 04:31:36;;;;;;;6.15;3.20;;;;;;;;;;5083223;28;20050;-72
2023/08/03 04:34:04;;;;;;;4.95;2.83;;;;;;;;;;5083014;28;20048;-71
2023/08/03 04:36:31;;;;;;;4.50;2.58;;;;;;;;;;5085056;28;20059;-72
2023/08/03 04:38:59;;;;;;;7.25;2.78;;;;;;;;;;5081706;28;20390;-72
2023/08/03 04:41:26;;;;;;;9.48;2.58;;;;;;;;;;5066651;28;20063;-71
2023/08/03 04:43:54;;;;;;;7.57;2.78;;;;;;;;;;5070825;28;20052;-71
2023/08/03 04:46:21;;;;;;;3.47;2.80;;;;;;;;;;5085934;28;20080;-72
2023/08/03 04:48:48;;;;;;;8.05;2.40;;;;;;;;;;5088958;28;20059;-72
2023/08/03 04:51:18;;;;;;;5.20;2.78;;;;;;;;;;5082166;28;20051;-72
2023/08/03 04:53:45;;;;;;;3.20;2.33;;;;;;;;;;5067237;28;20078;-72
2023/08/03 04:56:12;;;;;;;3.85;2.58;;;;;;;;;;5083514;28;20055;-71
2023/08/03 04:58:40;;;;;;;6.00;2.70;;;;;;;;;;5083100;28;20487;-71
2023/08/03 05:01:07;;;;;;;4.30;3.10;;;;;;;;;;5083311;28;20052;-72
2023/08/03 05:03:34;;;;;;;9.15;2.85;;;;;;;;;;5060204;28;20101;-71
2023/08/03 05:06:01;;;;;;;4.55;2.90;;;;;;;;;;5086374;28;20122;-71
2023/08/03 05:08:30;;;;;;;5.47;2.92;;;;;;;;;;5082496;28;20045;-72
2023/08/03 05:10:57;;;;;;;7.45;2.97;;;;;;;;;;5082349;28;20128;-71
2023/08/03 05:13:25;;;;;;;5.18;2.70;;;;;;;;;;5076250;28;20492;-71
2023/08/03 05:15:52;;;;;;;7.05;2.97;;;;;;;;;;5084795;28;20487;-71
2023/08/03 05:18:19;;;;;;;3.13;2.72;;;;;;;;;;5069740;28;20410;-71
2023/08/03 05:20:46;;;;;;;4.32;2.95;;;;;;;;;;5087987;28;20067;-72
2023/08/03 05:23:14;;;;;;;5.97;2.80;;;;;;;;;;5088005;28;20044;-71
2023/08/03 05:25:42;;;;;;;8.07;2.80;;;;;;;;;;5084565;28;20052;-72
2023/08/03 05:28:10;;;;;;;4.30;2.78;;;;;;;;;;5084033;28;20060;-72
2023/08/03 05:30:37;;;;;;;6.40;3.05;;;;;;;;;;5079729;28;20406;-71
2023/08/03 05:33:04;;;;;;;5.22;2.60;;;;;;;;;;5055822;28;20056;-71
2023/08/03 05:35:31;;;;;;;8.38;2.45;;;;;;;;;;5084428;28;20529;-71
2023/08/03 05:37:59;;;;;;;4.03;2.35;;;;;;;;;;5081265;28;20044;-71
2023/08/03 05:40:26;;;;;;;4.53;2.40;;;;;;;;;;5082137;28;20437;-72
2023/08/03 05:42:54;;;;;;;3.25;2.17;;;;;;;;;;5078500;28;20051;-71
2023/08/03 05:45:39;;;;;;;5.82;2.20;;;;;;;;;;5082912;28;20048;-72
2023/08/03 05:48:12;;;;;;;2.85;1.70;;;;;;;;;;5081890;28;20048;-71
2023/08/03 06:49:51;;;;;;;2.92;1.70;;;;;;;;;;5073753;27;20368;-72
2023/08/03 06:52:18;;;;;;;4.00;1.73;;;;;;;;;;5082707;28;20047;-72
2023/08/03 06:54:45;;;;;;;4.45;1.85;;;;;;;;;;5083120;28;20054;-72
2023/08/03 06:57:12;;;;;;;6.88;1.83;;;;;;;;;;5080037;28;20503;-72
2023/08/03 06:59:40;;;;;;;6.57;1.83;;;;;;;;;;5074498;28;20064;-72
2023/08/03 07:02:07;;;;;;;4.85;1.60;;;;;;;;;;5081193;28;20059;-72
2023/08/03 07:04:35;;;;;;;6.93;1.30;;;;;;;;;;5082922;28;20048;-72
2023/08/03 07:07:03;;;;;;;3.15;1.20;;;;;;;;;;5078127;28;20126;-72
2023/08/03 07:09:31;;;;;;;3.35;1.30;;;;;;;;;;5064636;28;20508;-72
2023/08/03 07:11:59;;;;;;;6.90;1.58;;;;;;;;;;5063949;28;20045;-72
2023/08/03 07:14:26;;;;;;;4.05;1.23;;;;;;;;;;5063897;28;20140;-72
2023/08/03 07:16:54;;;;;;;3.83;1.00;;;;;;;;;;5063059;28;20056;-72
2023/08/03 07:19:21;;;;;;;5.03;1.48;;;;;;;;;;5062919;28;20095;-72
2023/08/03 07:21:48;;;;;;;6.38;1.83;;;;;;;;;;5061119;28;20052;-72
2023/08/03 07:24:17;;;;;;;7.43;1.67;;;;;;;;;;5064728;28;20506;-72
2023/08/03 07:26:44;;;;;;;12.40;1.40;;;;;;;;;;5061833;28;20063;-72
2023/08/03 07:29:11;;;;;;;4.35;1.27;;;;;;;;;;5058277;28;20044;-72
2023/08/03 07:31:39;;;;;;;4.78;1.13;;;;;;;;;;5063557;28;20055;-72
2023/08/03 07:34:06;;;;;;;6.88;1.42;;;;;;;;;;5062155;28;20183;-72
2023/08/03 07:36:33;;;;;;;3.75;1.40;;;;;;;;;;5064434;28;20084;-72
2023/08/03 07:39:00;;;;;;;3.90;1.67;;;;;;;;;;5063187;28;20045;-72
2023/08/03 07:41:29;;;;;;;6.28;1.30;;;;;;;;;;5064823;28;20124;-72
2023/08/03 07:43:56;;;;;;;7.68;1.30;;;;;;;;;;5063834;28;20060;-72
2023/08/03 07:46:23;;;;;;;7.45;1.75;;;;;;;;;;5065633;28;20040;-71
2023/08/03 07:48:51;;;;;;;6.18;1.67;;;;;;;;;;5062779;28;20586;-71
2023/08/03 07:51:18;;;;;;;7.05;1.40;;;;;;;;;;5063613;28;20047;-71
2023/08/03 07:53:46;;;;;;;4.47;1.70;;;;;;;;;;5062704;28;20052;-71
2023/08/03 07:56:17;;;;;;;3.85;1.30;;;;;;;;;;5058826;28;20102;-71
2023/08/03 07:58:46;;;;;;;9.02;1.38;;;;;;;;;;5059795;28;20124;-71
2023/08/03 08:01:13;;;;;;;4.10;1.40;;;;;;;;;;5050068;28;20049;-71
2023/08/03 08:03:41;;;;;;;6.70;1.65;;;;;;;;;;5047292;28;20049;-71
2023/08/03 08:06:09;;;;;;;13.30;1.90;;;;;;;;;;5046433;28;20464;-71
2023/08/03 08:08:36;;;;;;;4.35;1.23;;;;;;;;;;5047990;28;20045;-71
2023/08/03 08:11:04;;;;;;;4.68;1.55;;;;;;;;;;5050191;28;20049;-71
2023/08/03 08:13:31;;;;;;;6.35;1.45;;;;;;;;;;5046498;28;20051;-71
2023/08/03 08:16:01;;;;;;;4.90;1.50;;;;;;;;;;5048571;28;20056;-71
2023/08/03 08:18:29;;;;;;;6.85;1.42;;;;;;;;;;5046980;28;20492;-71
2023/08/03 08:20:56;;;;;;;6.70;1.48;;;;;;;;;;5043588;28;20052;-70
2023/08/03 08:23:23;;;;;;;5.13;1.23;;;;;;;;;;5049436;28;20045;-71
2023/08/03 08:25:51;;;;;;;6.50;1.35;;;;;;;;;;5049234;28;20053;-71
2023/08/03 08:28:18;;;;;;;4.63;1.20;;;;;;;;;;5048459;28;20128;-71
2023/08/03 08:30:45;;;;;;;6.07;1.20;;;;;;;;;;5049194;28;20053;-71
2023/08/03 08:33:15;;;;;;;4.90;1.55;;;;;;;;;;5048701;28;20055;-71
2023/08/03 08:35:42;;;;;;;9.02;1.35;;;;;;;;;;5048934;28;20515;-71
2023/08/03 08:38:10;;;;;;;5.38;1.10;;;;;;;;;;5049405;28;20064;-71
2023/08/03 08:40:37;;;;;;;6.25;1.40;;;;;;;;;;5046081;28;20056;-71
2023/08/03 08:43:05;;;;;;;4.80;1.30;;;;;;;;;;5040997;28;20135;-71
2023/08/03 08:45:32;;;;;;;3.55;1.10;;;;;;;;;;5048674;28;20060;-71
2023/08/03 08:47:59;;;;;;;9.18;1.85;;;;;;;;;;5048940;28;20119;-71
2023/08/03 08:50:28;;;;;;;7.97;1.35;;;;;;;;;;5046813;28;20071;-71
2023/08/03 08:52:56;;;;;;;8.52;1.00;;;;;;;;;;5049287;28;20056;-71
2023/08/03 08:55:24;;;;;;;7.10;1.20;;;;;;;;;;5046598;28;20045;-71
2023/08/03 08:57:52;;;;;;;4.10;1.10;;;;;;;;;;5038648;28;20083;-71
2023/08/03 09:00:19;;;;;;;3.25;1.20;;;;;;;;;;5048752;28;20140;-71
2023/08/03 09:02:47;;;;;;;3.25;1.00;;;;;;;;;;5049042;28;20492;-71
2023/08/03 09:05:15;;;;;;;3.58;1.10;;;;;;;;;;5049028;28;20045;-71
2023/08/03 09:07:44;;;;;;;2.08;0.77;;;;;;;;;;5049215;28;20052;-74
2023/08/03 09:10:12;;;;;;;3.22;1.10;;;;;;;;;;5047339;28;20053;-71
2023/08/03 09:12:39;;;;;;;2.63;0.80;;;;;;;;;;5048252;28;20476;-71
2023/08/03 09:15:07;;;;;;;1.50;0.70;;;;;;;;;;5045201;28;20462;-71
2023/08/03 09:17:35;;;;;;;4.72;0.90;;;;;;;;;;5047541;28;20055;-70
2023/08/03 09:20:03;;;;;;;2.83;0.68;;;;;;;;;;5046617;28;20056;-70
2023/08/03 09:22:30;;;;;;;5.85;0.90;;;;;;;;;;5047026;28;20110;-71
2023/08/03 09:25:03;;;;;;;5.53;0.80;;;;;;;;;;5051255;28;20044;-70
2023/08/03 09:27:30;;;;;;;3.80;0.70;;;;;;;;;;5049822;28;20048;-70
2023/08/03 09:30:00;;;;;;;2.20;0.70;;;;;;;;;;5044713;28;20506;-70
2023/08/03 09:32:34;;;;;;;3.53;0.77;;;;;;;;;;5047673;28;20503;-70
2023/08/03 09:35:01;;;;;;;2.35;0.70;;;;;;;;;;5047373;28;20049;-71
2023/08/03 09:37:35;;;;;;;4.90;0.68;;;;;;;;;;5046525;28;20052;-71
2023/08/03 09:40:05;;;;;;;3.65;0.98;;;;;;;;;;5049524;28;20533;-71
2023/08/03 09:42:32;;;;;;;2.45;0.68;;;;;;;;;;5047323;28;20049;-71
2023/08/03 09:45:01;;;;;;;3.65;0.80;;;;;;;;;;5049167;28;20052;-70
2023/08/03 09:47:28;;;;;;;4.45;1.10;;;;;;;;;;5047004;28;20102;-70
2023/08/03 09:49:56;;;;;;;2.35;0.60;;;;;;;;;;5048646;28;20585;-71
2023/08/03 09:52:24;;;;;;;3.05;0.90;;;;;;;;;;5044202;28;20155;-71
2023/08/03 09:54:55;;;;;;;2.15;0.90;;;;;;;;;;5048947;28;20103;-70
2023/08/03 09:57:25;;;;;;;1.90;0.70;;;;;;;;;;5037346;28;20044;-70
2023/08/03 09:59:54;;;;;;;6.18;1.00;;;;;;;;;;5049249;28;20447;-71
2023/08/03 10:02:24;;;;;;;2.92;0.63;;;;;;;;;;5047163;28;20052;-70
2023/08/03 10:04:53;;;;;;;2.47;0.75;;;;;;;;;;5048270;28;20052;-70
2023/08/03 10:07:21;;;;;;;4.30;1.08;;;;;;;;;;5046699;28;20049;-70
2023/08/03 10:09:52;;;;;;;1.90;0.60;;;;;;;;;;5042110;28;20049;-71
2023/08/03 10:12:21;;;;;;;1.00;0.70;;;;;;;;;;5042430;28;20433;-70
2023/08/03 10:14:52;;;;;;;1.70;0.50;;;;;;;;;;5038566;28;20045;-71
2023/08/03 10:17:19;;;;;;;2.65;0.70;;;;;;;;;;5040137;28;20126;-71
2023/08/03 10:19:47;;;;;;;3.05;0.80;;;;;;;;;;5044268;28;20484;-70
2023/08/03 10:22:15;;;;;;;5.38;0.80;;;;;;;;;;5046098;28;20073;-71
2023/08/03 10:24:42;;;;;;;2.80;0.80;;;;;;;;;;5043400;28;20060;-70
2023/08/03 10:27:17;;;;;;;5.20;0.93;;;;;;;;;;5046802;28;20048;-70
2023/08/03 10:29:56;;;;;;;3.70;0.82;;;;;;;;;;5039919;28;20048;-71
2023/08/03 10:32:24;;;;;;;3.28;1.17;;;;;;;;;;5038891;28;20072;-71
2023/08/03 10:34:56;;;;;;;1.73;0.68;;;;;;;;;;5047097;28;20045;-70
2023/08/03 10:37:23;;;;;;;2.30;0.60;;;;;;;;;;5046029;28;20157;-70
2023/08/03 10:39:53;;;;;;;2.67;0.60;;;;;;;;;;5042210;28;20048;-71
2023/08/03 10:42:25;;;;;;;1.38;0.68;;;;;;;;;;5046129;28;20506;-71
2023/08/03 10:44:52;;;;;;;2.97;1.00;;;;;;;;;;5047895;28;20773;-71
2023/08/03 10:47:25;;;;;;;1.85;0.85;;;;;;;;;;5044815;28;20055;-70
2023/08/03 10:49:53;;;;;;;1.17;0.70;;;;;;;;;;5042062;28;20063;-70
2023/08/03 10:52:22;;;;;;;1.92;0.80;;;;;;;;;;5041136;28;20052;-71
2023/08/03 10:54:49;;;;;;;3.90;1.13;;;;;;;;;;5046305;28;20041;-70
2023/08/03 10:57:18;;;;;;;3.95;1.55;;;;;;;;;;5046564;28;21533;-70
2023/08/03 10:59:46;;;;;;;3.25;1.27;;;;;;;;;;5047932;28;20122;-70
2023/08/03 11:02:14;;;;;;;2.60;1.00;;;;;;;;;;5045352;28;20052;-71
2023/08/03 11:04:43;;;;;;;5.43;1.10;;;;;;;;;;5046336;28;20801;-70
2023/08/03 11:07:11;;;;;;;6.88;1.33;;;;;;;;;;5046994;28;20052;-71
2023/08/03 11:09:38;;;;;;;5.13;0.98;;;;;;;;;;5046785;28;20049;-71
2023/08/03 11:12:07;;;;;;;4.05;1.00;;;;;;;;;;5044846;28;20060;-71
2023/08/03 11:14:39;;;;;;;3.78;1.10;;;;;;;;;;5046142;28;20488;-71
2023/08/03 11:17:06;;;;;;;3.70;0.98;;;;;;;;;;5042630;28;20484;-72
2023/08/03 11:19:38;;;;;;;5.25;1.20;;;;;;;;;;5042957;28;20560;-71
2023/08/03 11:22:08;;;;;;;4.20;1.40;;;;;;;;;;5043028;28;20087;-71
2023/08/03 11:24:36;;;;;;;3.15;0.80;;;;;;;;;;5044516;28;20138;-71
2023/08/03 11:27:04;;;;;;;3.53;1.00;;;;;;;;;;5043449;28;20053;-72
2023/08/03 11:29:32;;;;;;;3.53;0.80;;;;;;;;;;5038024;28;20516;-72
2023/08/03 11:31:59;;;;;;;3.55;0.77;;;;;;;;;;5042697;28;20411;-73
2023/08/03 11:34:26;;;;;;;3.58;0.90;;;;;;;;;;5039953;28;20056;-71
2023/08/03 11:36:54;;;;;;;1.80;0.80;;;;;;;;;;5042560;28;20133;-71
2023/08/03 11:39:22;;;;;;;1.50;0.80;;;;;;;;;;5037566;28;20045;-71
2023/08/03 11:41:50;;;;;;;4.88;1.02;;;;;;;;;;5040711;28;20045;-71
2023/08/03 11:44:20;;;;;;;2.63;0.90;;;;;;;;;;5049913;28;20049;-70
2023/08/03 11:46:49;;;;;;;5.05;1.00;;;;;;;;;;5047368;28;20049;-68
2023/08/03 11:49:18;;;;;;;3.35;0.90;;;;;;;;;;5041769;28;20046;-68
2023/08/03 11:51:49;;;;;;;4.80;0.90;;;;;;;;;;5044646;28;20399;-67
2023/08/03 11:54:25;;;;;;;4.15;1.20;;;;;;;;;;5044399;28;20053;-66
2023/08/03 11:56:52;;;;;;;5.35;1.65;;;;;;;;;;5047137;28;20072;-68
2023/08/03 11:59:19;;;;;;;9.10;1.80;;;;;;;;;;5050211;28;20063;-68
2023/08/03 12:01:47;;;;;;;5.15;1.08;;;;;;;;;;5049240;28;20492;-68
2023/08/03 12:04:14;;;;;;;6.13;1.83;;;;;;;;;;5049992;28;20056;-69
2023/08/03 12:06:45;;;;;;;5.72;1.67;;;;;;;;;;5046742;28;21058;-67
2023/08/03 12:09:18;;;;;;;9.52;1.80;;;;;;;;;;5047296;28;20523;-68
2023/08/03 12:11:47;;;;;;;7.50;1.67;;;;;;;;;;5047158;28;20052;-67
2023/08/03 12:14:14;;;;;;;8.18;1.98;;;;;;;;;;5043932;28;20061;-69
2023/08/03 12:16:41;;;;;;;6.30;1.85;;;;;;;;;;5046282;28;20048;-68
2023/08/03 12:19:09;;;;;;;8.57;2.13;;;;;;;;;;5048467;28;20072;-69
2023/08/03 12:21:36;;;;;;;8.55;1.58;;;;;;;;;;5048374;28;20099;-69
2023/08/03 12:24:04;;;;;;;9.05;2.38;;;;;;;;;;5048754;28;20049;-68
2023/08/03 12:26:31;;;;;;;8.73;1.77;;;;;;;;;;5049612;28;20049;-69
2023/08/03 12:29:01;;;;;;;5.05;1.95;;;;;;;;;;5050111;28;20150;-68
2023/08/03 12:31:30;;;;;;;6.25;1.50;;;;;;;;;;5047635;28;20442;-68
2023/08/03 12:33:57;;;;;;;7.07;2.05;;;;;;;;;;5045561;28;20102;-68
2023/08/03 12:36:25;;;;;;;6.60;2.10;;;;;;;;;;5041934;28;20063;-67
2023/08/03 12:38:52;;;;;;;10.25;1.63;;;;;;;;;;5049901;28;20053;-67
2023/08/03 12:41:19;;;;;;;11.45;2.05;;;;;;;;;;5044487;28;20041;-70
2023/08/03 12:43:47;;;;;;;10.75;2.00;;;;;;;;;;5049004;28;20088;-67
2023/08/03 12:46:15;;;;;;;8.63;1.38;;;;;;;;;;5043452;28;20140;-67
2023/08/03 12:48:42;;;;;;;10.40;1.98;;;;;;;;;;5042324;28;20129;-68
2023/08/03 12:51:10;;;;;;;8.43;2.20;;;;;;;;;;5049516;28;20049;-67
2023/08/03 12:53:38;;;;;;;9.55;1.85;;;;;;;;;;5048648;28;20095;-67
2023/08/03 12:56:06;;;;;;;11.18;2.20;;;;;;;;;;5048919;28;20045;-66
2023/08/03 12:58:33;;;;;;;14.52;2.25;;;;;;;;;;5048949;28;20045;-68
2023/08/03 13:01:00;;;;;;;5.75;1.60;;;;;;;;;;5046413;28;20508;-70
2023/08/03 13:03:29;;;;;;;10.85;2.10;;;;;;;;;;5048514;28;20475;-66
2023/08/03 13:05:56;;;;;;;10.48;1.92;;;;;;;;;;5051016;28;20472;-67
2023/08/03 13:08:23;;;;;;;7.22;2.00;;;;;;;;;;5046149;28;20049;-69
2023/08/03 13:10:51;;;;;;;9.23;2.17;;;;;;;;;;5049178;28;20053;-67
2023/08/03 13:13:18;;;;;;;7.47;1.80;;;;;;;;;;5046162;28;20060;-67
2023/08/03 13:15:46;;;;;;;7.13;1.88;;;;;;;;;;5044477;28;20142;-68
2023/08/03 13:18:13;;;;;;;7.00;1.67;;;;;;;;;;5046653;28;20068;-67
2023/08/03 13:20:42;;;;;;;7.35;2.55;;;;;;;;;;5048583;28;20041;-67
2023/08/03 13:23:09;;;;;;;4.90;1.92;;;;;;;;;;5043564;28;20037;-68
2023/08/03 13:25:37;;;;;;;8.90;1.90;;;;;;;;;;5047578;28;20124;-70
2023/08/03 13:28:05;;;;;;;5.55;2.00;;;;;;;;;;5047730;28;20059;-67
2023/08/03 13:30:32;;;;;;;7.88;1.77;;;;;;;;;;5049178;28;20056;-69
2023/08/03 13:32:59;;;;;;;6.53;2.03;;;;;;;;;;5047391;28;20037;-68
2023/08/03 13:35:27;;;;;;;7.22;1.73;;;;;;;;;;5047183;28;20071;-68
2023/08/03 13:37:55;;;;;;;7.90;1.70;;;;;;;;;;5054837;28;20244;-69
2023/08/03 13:40:22;;;;;;;5.72;1.95;;;;;;;;;;5046676;28;20064;-70
2023/08/03 13:42:50;;;;;;;5.75;1.70;;;;;;;;;;5047816;28;20081;-66
2023/08/03 13:45:17;;;;;;;5.40;1.60;;;;;;;;;;5047160;28;20052;-70
2023/08/03 13:47:44;;;;;;;10.23;1.73;;;;;;;;;;5047322;28;20057;-68
2023/08/03 13:50:11;;;;;;;6.90;1.40;;;;;;;;;;5051143;28;20053;-68
2023/08/03 13:52:39;;;;;;;9.90;2.13;;;;;;;;;;5047121;28;20061;-69
2023/08/03 13:55:08;;;;;;;5.88;1.48;;;;;;;;;;5048834;28;20047;-68
2023/08/03 13:57:36;;;;;;;8.27;1.95;;;;;;;;;;5044427;28;20053;-67
2023/08/03 14:00:08;;;;;;;5.95;1.92;;;;;;;;;;5046742;28;20055;-69
2023/08/03 14:02:36;;;;;;;8.45;1.85;;;;;;;;;;5046444;28;20083;-69
2023/08/03 14:05:03;;;;;;;9.07;1.60;;;;;;;;;;5053787;28;20062;-68
2023/08/03 14:07:30;;;;;;;6.30;1.70;;;;;;;;;;5052357;28;20120;-68
2023/08/03 14:10:00;;;;;;;6.47;1.52;;;;;;;;;;5047363;28;20053;-71
2023/08/03 14:12:29;;;;;;;8.55;2.53;;;;;;;;;;5049279;28;20052;-67
2023/08/03 14:14:56;;;;;;;9.27;1.75;;;;;;;;;;5039195;28;20056;-68
2023/08/03 14:17:23;;;;;;;5.90;1.52;;;;;;;;;;5047705;28;20056;-69
2023/08/03 14:19:51;;;;;;;10.27;1.85;;;;;;;;;;5046595;28;20484;-68
2023/08/03 14:22:18;;;;;;;10.70;1.90;;;;;;;;;;5049519;28;20041;-69
2023/08/03 14:24:45;;;;;;;5.32;1.60;;;;;;;;;;5045804;28;20095;-66
2023/08/03 14:27:12;;;;;;;6.20;1.50;;;;;;;;;;5047915;28;20138;-64
2023/08/03 14:29:41;;;;;;;6.07;1.42;;;;;;;;;;5045406;28;20075;-64
2023/08/03 14:32:09;;;;;;;13.10;1.60;;;;;;;;;;5047456;28;20048;-68
2023/08/03 14:34:36;;;;;;;7.55;2.00;;;;;;;;;;5047216;28;20491;-65
2023/08/03 14:37:06;;;;;;;5.78;1.88;;;;;;;;;;5047866;28;20059;-68
2023/08/03 14:39:34;;;;;;;7.90;1.70;;;;;;;;;;5041822;28;20134;-64
2023/08/03 14:42:01;;;;;;;7.85;1.60;;;;;;;;;;5047619;28;20487;-67
2023/08/03 14:44:29;;;;;;;8.45;1.75;;;;;;;;;;5042687;28;20088;-65
2023/08/03 14:46:58;;;;;;;5.28;1.52;;;;;;;;;;5046476;28;20052;-63
2023/08/03 14:49:25;;;;;;;7.03;1.63;;;;;;;;;;5046920;28;20075;-63
2023/08/03 14:51:53;;;;;;;6.90;1.67;;;;;;;;;;5046244;28;20049;-64
2023/08/03 14:54:20;;;;;;;5.72;1.45;;;;;;;;;;5047162;28;20059;-64
2023/08/03 14:56:47;;;;;;;9.55;1.90;;;;;;;;;;5050031;28;20484;-64
2023/08/03 14:59:14;;;;;;;7.22;1.52;;;;;;;;;;5046352;28;20130;-64
2023/08/03 15:01:42;;;;;;;3.85;1.40;;;;;;;;;;5046809;28;20341;-65
2023/08/03 15:04:11;;;;;;;10.25;1.73;;;;;;;;;;5044733;28;20052;-64
2023/08/03 15:06:38;;;;;;;6.93;1.63;;;;;;;;;;5043733;28;20563;-64
2023/08/03 15:09:06;;;;;;;4.57;1.33;;;;;;;;;;5048485;28;20480;-65
2023/08/03 15:11:33;;;;;;;11.35;1.98;;;;;;;;;;5049625;28;20128;-64
2023/08/03 15:14:01;;;;;;;5.30;1.55;;;;;;;;;;5052099;28;20081;-64
2023/08/03 15:16:29;;;;;;;11.10;1.83;;;;;;;;;;5046803;28;20046;-64
2023/08/03 15:18:56;;;;;;;13.43;2.05;;;;;;;;;;5047996;28;20052;-64
2023/08/03 15:21:26;;;;;;;3.53;1.45;;;;;;;;;;5048891;28;20041;-64
2023/08/03 15:23:53;;;;;;;6.07;1.45;;;;;;;;;;5049295;28;20041;-64
2023/08/03 15:26:21;;;;;;;5.05;1.38;;;;;;;;;;5047272;28;20075;-64
2023/08/03 15:28:48;;;;;;;10.57;2.13;;;;;;;;;;5050517;28;20071;-66
2023/08/03 15:31:17;;;;;;;6.40;1.70;;;;;;;;;;5049210;28;20055;-64
2023/08/03 15:33:44;;;;;;;8.02;1.83;;;;;;;;;;5051216;28;20067;-65
2023/08/03 15:36:12;;;;;;;6.57;1.48;;;;;;;;;;5049557;28;20055;-65
2023/08/03 15:38:41;;;;;;;6.50;1.40;;;;;;;;;;5048656;28;20057;-65
2023/08/03 15:41:09;;;;;;;8.77;1.88;;;;;;;;;;5051553;28;20076;-64
2023/08/03 15:43:36;;;;;;;9.13;1.30;;;;;;;;;;5049362;28;20059;-65
2023/08/03 15:46:04;;;;;;;3.97;1.30;;;;;;;;;;5051022;28;20629;-66